Time;durP1;ratioP1;P1;durP2;ratioP2;P2;SDS_P1;SDS_P2;PMS_P1;PMS_P2;Temp;Humidity;BMP_temperature;BMP_pressure;BME280_temperature;BME280_humidity;BME280_pressure;Samples;Min_cycle;Max_cycle;Signal;HPM_P1;HPM_P2
2023/01/09 00:02:07;;;;;;;2.40;1.20;;;11.80;47.10;;;;;;4991524;28;20209;-71
2023/01/09 00:04:33;;;;;;;2.20;1.03;;;11.80;46.00;;;;;;4992130;28;20174;-71
2023/01/09 00:06:59;;;;;;;2.33;1.30;;;11.80;45.50;;;;;;4991634;28;20437;-71
2023/01/09 00:09:25;;;;;;;2.30;1.20;;;11.90;43.90;;;;;;4987385;28;20433;-71
2023/01/09 00:11:51;;;;;;;2.30;1.10;;;11.70;47.00;;;;;;4993322;28;20205;-79
2023/01/09 00:14:17;;;;;;;2.30;1.10;;;11.90;45.50;;;;;;4991564;28;20186;-72
2023/01/09 00:16:43;;;;;;;3.00;1.40;;;11.80;46.00;;;;;;4986500;28;20425;-71
2023/01/09 00:19:09;;;;;;;2.30;1.17;;;12.50;45.60;;;;;;4990163;28;20527;-71
2023/01/09 00:21:36;;;;;;;2.27;1.10;;;12.30;46.50;;;;;;4991046;28;20683;-71
2023/01/09 00:24:01;;;;;;;2.30;1.20;;;11.80;48.30;;;;;;4992152;28;20413;-72
2023/01/09 00:26:27;;;;;;;2.30;1.10;;;11.70;47.10;;;;;;4991529;28;20420;-72
2023/01/09 00:28:53;;;;;;;2.30;1.10;;;12.00;47.20;;;;;;4992178;28;20301;-72
2023/01/09 00:31:19;;;;;;;2.20;1.10;;;12.20;45.20;;;;;;4989134;28;20217;-72
2023/01/09 00:33:57;;;;;;;2.47;1.35;;;12.20;44.60;;;;;;4992060;28;20178;-72
2023/01/09 00:36:23;;;;;;;2.28;1.13;;;12.00;44.70;;;;;;4988167;28;20183;-72
2023/01/09 00:38:49;;;;;;;2.30;1.10;;;11.80;45.30;;;;;;4977232;28;20216;-75
2023/01/09 00:41:23;;;;;;;2.27;1.10;;;11.50;45.60;;;;;;4989870;28;20205;-74
2023/01/09 00:43:53;;;;;;;2.25;1.00;;;11.70;46.60;;;;;;4984201;28;20428;-72
2023/01/09 00:46:23;;;;;;;2.35;1.10;;;11.70;45.60;;;;;;4992016;28;20217;-72
2023/01/09 00:48:49;;;;;;;2.28;1.10;;;11.80;44.30;;;;;;4991778;28;20177;-73
2023/01/09 00:51:17;;;;;;;2.20;1.00;;;11.60;44.80;;;;;;4985909;28;20221;-74
2023/01/09 00:53:43;;;;;;;2.30;1.10;;;11.80;45.40;;;;;;4980649;28;20784;-72
2023/01/09 00:56:15;;;;;;;2.20;1.10;;;11.90;45.20;;;;;;4990354;28;20455;-74
2023/01/09 00:58:41;;;;;;;2.20;1.00;;;12.30;45.60;;;;;;4990052;28;20464;-71
2023/01/09 01:01:07;;;;;;;2.40;1.20;;;12.00;46.40;;;;;;4987565;28;20511;-72
2023/01/09 01:03:32;;;;;;;2.30;1.10;;;12.10;45.00;;;;;;4984596;28;21106;-71
2023/01/09 01:08:43;;;;;;;2.30;1.10;;;12.40;44.20;;;;;;5007105;28;20188;-72
2023/01/09 01:11:10;;;;;;;2.30;1.10;;;12.40;41.70;;;;;;5003984;28;20223;-75
2023/01/09 01:13:36;;;;;;;2.50;1.20;;;12.40;42.80;;;;;;4989143;28;20766;-74
2023/01/09 01:16:08;;;;;;;2.40;1.17;;;12.50;43.20;;;;;;4996561;28;20923;-75
2023/01/09 01:18:34;;;;;;;2.47;1.10;;;12.80;41.80;;;;;;4994583;28;20464;-75
2023/01/09 01:20:59;;;;;;;2.33;1.13;;;13.10;41.40;;;;;;4996320;28;20440;-76
2023/01/09 01:23:25;;;;;;;2.50;1.20;;;13.00;41.20;;;;;;4990846;28;20476;-76
2023/01/09 01:25:51;;;;;;;2.40;1.10;;;13.30;41.50;;;;;;4991909;28;20186;-76
2023/01/09 01:28:18;;;;;;;2.40;1.10;;;13.70;41.60;;;;;;4990749;28;20425;-76
2023/01/09 01:30:43;;;;;;;2.40;1.10;;;13.60;40.70;;;;;;4974760;28;20496;-73
2023/01/09 01:33:10;;;;;;;3.53;1.70;;;13.40;42.10;;;;;;4976545;28;20450;-73
2023/01/09 01:35:36;;;;;;;2.50;1.10;;;12.50;44.50;;;;;;4991044;28;20209;-73
2023/01/09 01:38:01;;;;;;;2.50;1.20;;;13.10;45.30;;;;;;4995329;28;20417;-73
2023/01/09 01:40:28;;;;;;;2.60;1.30;;;12.90;42.40;;;;;;4985451;28;21063;-73
2023/01/09 01:42:54;;;;;;;2.40;1.10;;;12.60;42.50;;;;;;4994977;28;20232;-73
2023/01/09 01:45:24;;;;;;;2.40;1.00;;;13.00;45.90;;;;;;4994183;28;20412;-73
2023/01/09 01:47:56;;;;;;;2.43;1.07;;;12.60;43.00;;;;;;4994894;28;20772;-73
2023/01/09 01:50:40;;;;;;;2.37;1.10;;;12.00;44.30;;;;;;4992654;28;20451;-73
2023/01/09 01:53:09;;;;;;;2.40;1.00;;;12.20;44.30;;;;;;4993971;28;20762;-73
2023/01/09 01:55:39;;;;;;;2.40;1.10;;;12.60;44.30;;;;;;4993271;28;20448;-73
2023/01/09 01:58:06;;;;;;;2.40;1.13;;;12.90;43.30;;;;;;4992916;28;20436;-73
2023/01/09 02:00:36;;;;;;;2.40;1.10;;;13.00;43.60;;;;;;4991762;28;20885;-74
2023/01/09 02:03:03;;;;;;;2.40;1.10;;;12.80;43.20;;;;;;4989134;28;20981;-74
2023/01/09 02:05:29;;;;;;;2.27;1.00;;;12.50;44.80;;;;;;4992905;28;20464;-74
2023/01/09 02:07:55;;;;;;;2.40;1.10;;;12.30;45.60;;;;;;4992713;28;20437;-73
2023/01/09 02:10:23;;;;;;;2.37;1.10;;;11.60;49.80;;;;;;4990956;28;20437;-73
2023/01/09 02:12:49;;;;;;;2.50;1.10;;;11.40;50.60;;;;;;4990632;28;20224;-73
2023/01/09 02:15:16;;;;;;;2.30;1.10;;;11.70;52.00;;;;;;4990874;28;20959;-73
2023/01/09 02:17:44;;;;;;;2.23;1.00;;;11.40;52.60;;;;;;4997520;28;20432;-74
2023/01/09 02:20:35;;;;;;;2.37;1.10;;;11.20;52.20;;;;;;4996570;28;20453;-75
2023/01/09 02:23:16;;;;;;;2.40;1.20;;;11.00;52.50;;;;;;4990426;28;20438;-75
2023/01/09 02:26:03;;;;;;;2.43;1.27;;;10.60;54.80;;;;;;5010477;28;20235;-74
2023/01/09 02:29:14;;;;;;;2.43;1.10;;;10.80;53.50;;;;;;4998857;28;20441;-75
2023/01/09 02:31:43;;;;;;;2.20;1.00;;;11.00;51.90;;;;;;5002883;28;20874;-75
2023/01/09 02:34:23;;;;;;;2.30;1.10;;;11.00;52.10;;;;;;5011753;28;20192;-74
2023/01/09 02:37:11;;;;;;;2.20;1.10;;;11.40;49.90;;;;;;4994149;28;20479;-75
2023/01/09 02:39:45;;;;;;;2.20;1.10;;;11.80;49.20;;;;;;4994399;28;20225;-73
2023/01/09 02:42:22;;;;;;;2.20;1.10;;;11.70;47.80;;;;;;4996362;28;20433;-76
2023/01/09 02:44:49;;;;;;;2.30;1.20;;;11.50;49.30;;;;;;4994788;28;20288;-74
2023/01/09 02:47:14;;;;;;;2.30;1.13;;;10.90;52.30;;;;;;4992679;28;20417;-74
2023/01/09 02:49:46;;;;;;;2.27;1.10;;;11.20;52.90;;;;;;4992803;28;20523;-73
2023/01/09 02:52:20;;;;;;;2.20;1.10;;;11.20;53.20;;;;;;5003793;28;20229;-75
2023/01/09 02:55:10;;;;;;;2.20;1.10;;;11.50;52.30;;;;;;4983696;28;20813;-74
2023/01/09 02:58:03;;;;;;;2.30;1.10;;;11.50;53.50;;;;;;4991195;28;20283;-74
2023/01/09 03:00:56;;;;;;;2.30;1.10;;;11.40;53.50;;;;;;4990329;28;20516;-74
2023/01/09 03:03:39;;;;;;;2.20;1.20;;;10.60;58.40;;;;;;4990346;28;20186;-74
2023/01/09 03:06:37;;;;;;;2.30;1.10;;;10.70;57.30;;;;;;5004908;28;20437;-74
2023/01/09 03:09:13;;;;;;;2.40;1.20;;;10.20;60.40;;;;;;4933099;28;20283;-75
2023/01/09 03:11:46;;;;;;;2.10;1.10;;;10.40;61.90;;;;;;4992298;28;20463;-75
2023/01/09 03:14:16;;;;;;;2.17;1.10;;;10.50;60.30;;;;;;4991836;28;20178;-75
2023/01/09 03:16:45;;;;;;;2.17;1.10;;;9.90;64.90;;;;;;4990311;28;20575;-76
2023/01/09 03:19:16;;;;;;;2.17;1.10;;;9.90;67.50;;;;;;4984701;28;20205;-75
2023/01/09 03:21:43;;;;;;;2.20;1.10;;;10.60;61.50;;;;;;4991092;28;20198;-74
2023/01/09 03:24:09;;;;;;;2.10;1.10;;;10.80;58.30;;;;;;5006333;28;20892;-75
2023/01/09 03:26:35;;;;;;;2.10;1.10;;;10.30;61.20;;;;;;4988918;28;20218;-75
2023/01/09 03:29:00;;;;;;;2.10;1.10;;;10.70;59.90;;;;;;4991742;28;20185;-75
2023/01/09 03:31:26;;;;;;;2.20;1.20;;;11.10;57.90;;;;;;4981806;28;20219;-75
2023/01/09 03:33:52;;;;;;;2.10;1.20;;;11.10;54.60;;;;;;5002302;28;20934;-75
2023/01/09 03:36:19;;;;;;;2.20;1.10;;;11.10;54.60;;;;;;4991695;28;20200;-72
2023/01/09 03:38:44;;;;;;;2.10;1.20;;;11.20;53.10;;;;;;4992823;28;20331;-75
2023/01/09 03:41:10;;;;;;;2.00;1.10;;;11.40;52.30;;;;;;4997070;28;20691;-75
2023/01/09 03:43:36;;;;;;;2.10;1.10;;;11.00;52.60;;;;;;4999855;28;20589;-75
2023/01/09 03:46:02;;;;;;;2.10;1.20;;;10.20;56.20;;;;;;5002561;28;20179;-74
2023/01/09 03:48:28;;;;;;;2.20;1.20;;;10.10;57.90;;;;;;5001770;28;20244;-76
2023/01/09 03:50:54;;;;;;;2.00;1.10;;;10.10;55.20;;;;;;4988615;28;20675;-74
2023/01/09 03:53:22;;;;;;;2.08;1.15;;;10.30;57.10;;;;;;4992092;28;20180;-74
2023/01/09 03:55:50;;;;;;;2.20;1.10;;;10.30;54.60;;;;;;4989523;28;20696;-75
2023/01/09 03:58:17;;;;;;;2.60;1.30;;;10.10;55.70;;;;;;4989914;28;20209;-75
2023/01/09 04:00:47;;;;;;;2.08;1.10;;;9.90;57.60;;;;;;4985499;28;20203;-76
2023/01/09 04:03:14;;;;;;;2.10;1.10;;;10.20;53.70;;;;;;4991898;28;20183;-76
2023/01/09 04:05:40;;;;;;;2.00;1.10;;;10.10;53.80;;;;;;4990787;28;20199;-76
2023/01/09 04:08:06;;;;;;;2.10;1.13;;;9.80;56.50;;;;;;4988814;28;20196;-74
2023/01/09 04:10:32;;;;;;;2.10;1.10;;;9.80;57.90;;;;;;4988404;28;20189;-76
2023/01/09 04:12:58;;;;;;;2.10;1.20;;;10.20;54.10;;;;;;4987674;28;20186;-76
2023/01/09 04:15:23;;;;;;;2.10;1.10;;;10.00;54.60;;;;;;4988395;28;20220;-75
2023/01/09 04:17:49;;;;;;;2.00;1.10;;;10.30;53.60;;;;;;4989896;28;20208;-75
2023/01/09 04:20:14;;;;;;;2.27;1.10;;;10.30;52.00;;;;;;4990888;28;20679;-74
2023/01/09 04:22:40;;;;;;;1.90;1.10;;;9.90;55.50;;;;;;4983671;28;20217;-76
2023/01/09 04:25:06;;;;;;;1.93;1.10;;;10.10;53.70;;;;;;4991357;28;20184;-76
2023/01/09 04:27:32;;;;;;;2.08;1.10;;;9.90;56.70;;;;;;4991126;28;20584;-76
2023/01/09 04:29:58;;;;;;;2.00;1.20;;;10.10;55.30;;;;;;4992157;28;20192;-76
2023/01/09 04:32:26;;;;;;;2.00;1.10;;;10.50;54.30;;;;;;4991888;28;20439;-76
2023/01/09 04:34:55;;;;;;;1.90;1.10;;;10.10;55.80;;;;;;4991370;28;20542;-75
2023/01/09 04:37:21;;;;;;;2.05;1.20;;;9.40;64.80;;;;;;4991830;28;20261;-72
2023/01/09 04:39:48;;;;;;;2.00;1.10;;;9.20;66.50;;;;;;4981778;28;20256;-74
2023/01/09 04:42:14;;;;;;;1.90;1.10;;;9.40;63.30;;;;;;4988989;28;20204;-74
2023/01/09 04:44:39;;;;;;;2.00;1.10;;;8.70;65.50;;;;;;4998463;28;20179;-74
2023/01/09 04:47:05;;;;;;;2.00;1.10;;;8.80;65.70;;;;;;5011554;28;20910;-75
2023/01/09 04:49:31;;;;;;;1.93;1.10;;;8.60;63.80;;;;;;4996174;28;20197;-75
2023/01/09 04:51:56;;;;;;;2.00;1.23;;;8.90;61.60;;;;;;4985455;28;20484;-75
2023/01/09 04:54:22;;;;;;;1.83;1.10;;;8.60;59.50;;;;;;4990844;28;20564;-75
2023/01/09 04:56:48;;;;;;;1.90;1.10;;;8.20;62.80;;;;;;4990142;28;20191;-75
2023/01/09 04:59:14;;;;;;;1.90;1.00;;;8.20;62.30;;;;;;4987297;28;20206;-73
2023/01/09 05:01:39;;;;;;;1.90;1.10;;;8.20;66.30;;;;;;4987312;28;20208;-75
2023/01/09 05:04:05;;;;;;;1.90;1.10;;;8.60;64.50;;;;;;4986817;28;20273;-75
2023/01/09 05:06:31;;;;;;;1.83;1.00;;;8.90;58.80;;;;;;4988333;28;20541;-75
2023/01/09 05:08:57;;;;;;;1.90;1.10;;;9.40;56.00;;;;;;4989269;28;20433;-75
2023/01/09 05:11:24;;;;;;;1.90;1.10;;;9.20;55.00;;;;;;4987239;28;20213;-75
2023/01/09 05:13:50;;;;;;;2.00;1.20;;;8.60;55.70;;;;;;4999347;28;20446;-75
2023/01/09 05:16:15;;;;;;;1.80;1.00;;;8.80;54.30;;;;;;4997606;28;21017;-75
2023/01/09 05:18:41;;;;;;;1.80;1.10;;;8.60;53.80;;;;;;4994986;28;20220;-75
2023/01/09 05:21:07;;;;;;;1.90;1.20;;;8.60;53.60;;;;;;4994160;28;20622;-72
2023/01/09 05:23:32;;;;;;;2.13;1.20;;;9.10;53.90;;;;;;4997991;28;20190;-75
2023/01/09 05:25:58;;;;;;;1.77;1.00;;;8.60;54.80;;;;;;4994987;28;20241;-75
2023/01/09 05:28:23;;;;;;;1.80;1.10;;;8.80;54.20;;;;;;4993791;28;20193;-74
2023/01/09 05:30:49;;;;;;;1.80;1.10;;;9.30;52.80;;;;;;4986964;28;20242;-75
2023/01/09 05:33:15;;;;;;;2.00;1.23;;;9.50;51.00;;;;;;4986868;28;20186;-74
2023/01/09 05:35:40;;;;;;;1.80;1.10;;;9.80;49.40;;;;;;4989718;28;20182;-75
2023/01/09 05:38:06;;;;;;;1.80;1.10;;;9.50;49.70;;;;;;4990919;28;20212;-73
2023/01/09 05:40:31;;;;;;;1.80;1.10;;;9.20;50.60;;;;;;4990190;28;20228;-76
2023/01/09 05:42:57;;;;;;;1.80;1.10;;;9.30;52.20;;;;;;4988668;28;20190;-75
2023/01/09 05:45:22;;;;;;;1.80;1.10;;;9.20;52.30;;;;;;4989552;28;20198;-75
2023/01/09 05:47:48;;;;;;;1.70;1.00;;;8.50;55.80;;;;;;4990548;28;20185;-75
2023/01/09 05:50:14;;;;;;;1.80;1.00;;;8.30;58.10;;;;;;4989388;28;20185;-76
2023/01/09 05:52:40;;;;;;;1.80;1.17;;;8.40;56.80;;;;;;4988544;28;20284;-75
2023/01/09 05:55:07;;;;;;;1.80;1.10;;;8.40;56.40;;;;;;4993612;28;20793;-76
2023/01/09 05:57:32;;;;;;;1.80;1.10;;;8.70;56.30;;;;;;4992639;28;20197;-75
2023/01/09 05:59:58;;;;;;;1.90;1.20;;;9.20;53.80;;;;;;4991232;28;20260;-75
2023/01/09 06:02:23;;;;;;;1.80;1.10;;;9.00;52.40;;;;;;4993640;28;20210;-75
2023/01/09 06:04:49;;;;;;;1.90;1.20;;;9.20;52.70;;;;;;4992178;28;20190;-75
2023/01/09 06:07:14;;;;;;;2.00;1.20;;;9.50;51.30;;;;;;4989312;28;20192;-75
2023/01/09 06:09:40;;;;;;;1.77;1.03;;;9.50;50.80;;;;;;4992787;28;20189;-76
2023/01/09 06:12:06;;;;;;;1.87;1.20;;;9.90;49.50;;;;;;4993065;28;20221;-75
2023/01/09 06:14:32;;;;;;;1.80;1.10;;;9.30;51.40;;;;;;4990174;28;20206;-72
2023/01/09 06:16:57;;;;;;;1.80;1.10;;;9.20;51.00;;;;;;4990387;28;20244;-75
2023/01/09 06:19:23;;;;;;;1.77;1.10;;;8.90;51.80;;;;;;4992376;28;20260;-75
2023/01/09 06:21:49;;;;;;;1.77;1.00;;;8.80;53.20;;;;;;4994089;28;20447;-75
2023/01/09 06:24:14;;;;;;;1.80;1.10;;;8.80;53.70;;;;;;4992702;28;20610;-75
2023/01/09 06:26:40;;;;;;;1.90;1.20;;;9.10;51.30;;;;;;4998632;28;20186;-73
2023/01/09 06:29:06;;;;;;;1.77;1.10;;;9.30;50.70;;;;;;5007101;28;20209;-75
2023/01/09 06:31:32;;;;;;;1.77;1.10;;;9.20;48.90;;;;;;5001163;28;20209;-74
2023/01/09 06:33:58;;;;;;;1.77;1.10;;;8.90;49.30;;;;;;4996967;28;20192;-75
2023/01/09 06:36:24;;;;;;;1.80;1.10;;;8.80;50.10;;;;;;4991606;28;20197;-73
2023/01/09 06:38:49;;;;;;;1.90;1.20;;;8.90;48.80;;;;;;4987005;28;20196;-73
2023/01/09 06:41:15;;;;;;;1.80;1.20;;;9.10;48.70;;;;;;4992904;28;20205;-74
2023/01/09 06:43:41;;;;;;;1.80;1.10;;;9.20;48.90;;;;;;4994000;28;20197;-76
2023/01/09 06:46:06;;;;;;;1.80;1.10;;;8.30;49.80;;;;;;4993123;28;20556;-76
2023/01/09 06:48:32;;;;;;;1.90;1.10;;;8.90;49.20;;;;;;4983473;28;20231;-77
2023/01/09 06:50:58;;;;;;;1.80;1.10;;;8.50;47.50;;;;;;4987508;28;20202;-74
2023/01/09 06:53:24;;;;;;;1.90;1.20;;;8.90;47.10;;;;;;4996897;28;20840;-74
2023/01/09 06:55:49;;;;;;;1.80;1.10;;;9.50;46.40;;;;;;4994469;28;20196;-75
2023/01/09 06:58:15;;;;;;;1.80;1.10;;;9.50;44.70;;;;;;5005257;28;20545;-74
2023/01/09 07:00:40;;;;;;;1.90;1.10;;;9.30;45.40;;;;;;4997938;28;20263;-75
2023/01/09 07:03:06;;;;;;;1.87;1.13;;;9.40;44.90;;;;;;5005983;28;20609;-74
2023/01/09 07:05:37;;;;;;;1.80;1.10;;;9.10;44.50;;;;;;4990817;28;20245;-74
2023/01/09 07:08:03;;;;;;;1.80;1.00;;;9.30;46.00;;;;;;4999223;28;20169;-75
2023/01/09 07:10:28;;;;;;;1.80;1.10;;;9.20;42.60;;;;;;5001444;28;20215;-75
2023/01/09 07:12:54;;;;;;;1.83;1.10;;;8.70;45.80;;;;;;4991353;28;20198;-75
2023/01/09 07:15:20;;;;;;;1.80;1.10;;;8.80;45.40;;;;;;4991639;28;20190;-74
2023/01/09 07:17:47;;;;;;;1.80;1.10;;;9.30;45.10;;;;;;5000480;28;20332;-76
2023/01/09 07:20:13;;;;;;;1.75;1.10;;;9.40;42.20;;;;;;5000653;28;20288;-74
2023/01/09 07:22:38;;;;;;;1.80;1.13;;;9.10;44.40;;;;;;4986226;28;20790;-75
2023/01/09 07:25:04;;;;;;;1.80;1.10;;;9.20;42.00;;;;;;4991068;28;20186;-76
2023/01/09 07:27:30;;;;;;;1.80;1.10;;;9.30;42.40;;;;;;4991593;28;20198;-75
2023/01/09 07:29:55;;;;;;;1.73;1.10;;;9.10;42.30;;;;;;5004352;28;20412;-75
2023/01/09 07:32:21;;;;;;;1.80;1.10;;;8.90;42.80;;;;;;5008298;28;20201;-75
2023/01/09 07:34:48;;;;;;;1.83;1.10;;;9.00;43.40;;;;;;4995474;28;20182;-75
2023/01/09 07:37:13;;;;;;;1.80;1.10;;;9.30;42.10;;;;;;4992702;28;20181;-75
2023/01/09 07:39:39;;;;;;;1.83;1.10;;;9.50;41.40;;;;;;4996758;28;20224;-76
2023/01/09 07:42:04;;;;;;;1.80;1.00;;;9.50;41.60;;;;;;5005665;28;20205;-75
2023/01/09 07:44:30;;;;;;;1.80;1.10;;;9.60;42.60;;;;;;4992079;28;20190;-75
2023/01/09 07:46:56;;;;;;;1.80;1.07;;;9.20;43.60;;;;;;4986114;28;20186;-75
2023/01/09 07:49:21;;;;;;;1.90;1.20;;;9.60;41.00;;;;;;4993853;28;20194;-75
2023/01/09 07:51:47;;;;;;;1.80;1.10;;;9.40;40.80;;;;;;4999167;28;20618;-75
2023/01/09 07:54:13;;;;;;;1.80;1.00;;;9.10;41.50;;;;;;4992266;28;20301;-75
2023/01/09 07:56:39;;;;;;;1.80;1.10;;;9.50;41.70;;;;;;4991311;28;20312;-77
2023/01/09 07:59:05;;;;;;;1.90;1.20;;;9.60;40.70;;;;;;4990606;28;20214;-73
2023/01/09 08:01:31;;;;;;;1.75;1.00;;;9.90;38.90;;;;;;5001741;28;20745;-73
2023/01/09 08:03:57;;;;;;;1.70;1.00;;;9.50;39.10;;;;;;4996239;28;20455;-73
2023/01/09 08:06:23;;;;;;;1.80;1.10;;;9.30;40.40;;;;;;4989459;28;20935;-73
2023/01/09 08:08:49;;;;;;;1.80;1.10;;;9.40;41.20;;;;;;4990573;28;20448;-74
2023/01/09 08:11:15;;;;;;;1.80;1.10;;;9.90;40.20;;;;;;4998836;28;20750;-74
2023/01/09 08:13:40;;;;;;;1.90;1.10;;;9.60;39.00;;;;;;4991596;28;20675;-76
2023/01/09 08:16:06;;;;;;;1.80;1.10;;;9.90;37.60;;;;;;4988812;28;20192;-77
2023/01/09 08:18:32;;;;;;;1.88;1.15;;;9.40;39.40;;;;;;4984789;28;20191;-76
2023/01/09 08:20:58;;;;;;;1.90;1.10;;;9.60;39.70;;;;;;4989911;28;20625;-75
2023/01/09 08:23:24;;;;;;;1.80;1.10;;;9.50;38.20;;;;;;5000989;28;20211;-77
2023/01/09 08:25:49;;;;;;;1.97;1.20;;;9.70;40.00;;;;;;4997378;28;20561;-77
2023/01/09 08:28:16;;;;;;;1.80;1.00;;;9.60;38.90;;;;;;5001034;28;20186;-76
2023/01/09 08:30:41;;;;;;;1.85;1.10;;;9.50;39.70;;;;;;4991710;28;20213;-78
2023/01/09 08:33:07;;;;;;;1.90;1.10;;;9.80;38.40;;;;;;4999764;28;20190;-74
2023/01/09 08:35:32;;;;;;;1.90;1.10;;;9.90;37.30;;;;;;5004581;28;20187;-74
2023/01/09 08:37:58;;;;;;;1.83;1.10;;;9.80;38.00;;;;;;4987823;28;20189;-73
2023/01/09 08:40:23;;;;;;;1.80;1.00;;;9.40;38.40;;;;;;4991894;28;20284;-77
2023/01/09 08:48:17;;;;;;;1.95;1.30;;;8.70;41.90;;;;;;4987320;28;20938;-76
2023/01/09 08:50:43;;;;;;;2.00;1.23;;;9.70;38.80;;;;;;4991406;28;20206;-74
2023/01/09 08:53:10;;;;;;;1.90;1.10;;;10.20;36.70;;;;;;4990850;28;20241;-74
2023/01/09 08:55:35;;;;;;;2.10;1.40;;;9.90;37.30;;;;;;4996903;28;20200;-73
2023/01/09 08:58:01;;;;;;;2.20;1.10;;;9.90;37.10;;;;;;4986338;28;20194;-73
2023/01/09 09:00:27;;;;;;;1.93;1.10;;;10.00;36.80;;;;;;5007200;28;20202;-74
2023/01/09 09:02:58;;;;;;;1.87;1.10;;;10.20;35.40;;;;;;4990910;28;20202;-72
2023/01/09 09:05:25;;;;;;;1.90;1.10;;;10.00;36.50;;;;;;4989088;28;20184;-75
2023/01/09 09:07:54;;;;;;;1.90;1.00;;;10.00;36.00;;;;;;4990128;28;20270;-73
2023/01/09 09:10:25;;;;;;;2.00;1.10;;;10.30;35.00;;;;;;4999298;28;20185;-74
2023/01/09 09:12:53;;;;;;;2.00;1.10;;;10.40;34.30;;;;;;4989282;28;20278;-74
2023/01/09 09:15:22;;;;;;;2.00;1.10;;;10.20;35.90;;;;;;4986270;28;20685;-74
2023/01/09 09:17:53;;;;;;;2.00;1.20;;;10.60;36.20;;;;;;4989497;28;20631;-74
2023/01/09 09:20:23;;;;;;;2.08;1.20;;;11.00;35.20;;;;;;4986553;28;20254;-75
2023/01/09 09:22:49;;;;;;;2.00;1.10;;;10.60;36.00;;;;;;4994616;28;20188;-74
2023/01/09 09:25:15;;;;;;;2.00;1.10;;;10.50;34.80;;;;;;4997495;28;20190;-73
2023/01/09 09:27:41;;;;;;;2.10;1.10;;;10.30;35.40;;;;;;5010972;28;20418;-74
2023/01/09 09:30:08;;;;;;;2.03;1.10;;;10.20;35.80;;;;;;5000294;28;20196;-74
2023/01/09 09:32:35;;;;;;;2.10;1.10;;;10.60;34.80;;;;;;5008685;28;20212;-74
2023/01/09 09:35:00;;;;;;;2.20;1.10;;;10.80;35.50;;;;;;5008279;28;20554;-73
2023/01/09 09:37:26;;;;;;;2.10;1.10;;;10.80;33.10;;;;;;5004093;28;20186;-74
2023/01/09 09:39:51;;;;;;;2.10;1.13;;;10.60;33.30;;;;;;5008068;28;20229;-74
2023/01/09 09:45:48;;;;;;;2.40;1.27;;;10.70;34.00;;;;;;5004230;28;20184;-74
2023/01/09 09:48:29;;;;;;;2.20;1.17;;;10.30;33.90;;;;;;5004288;28;20546;-73
2023/01/09 09:51:19;;;;;;;2.20;1.10;;;10.30;35.40;;;;;;4988223;28;20193;-74
2023/01/09 09:54:10;;;;;;;2.33;1.17;;;10.10;33.90;;;;;;4994935;28;20180;-74
2023/01/09 09:56:47;;;;;;;2.33;1.20;;;10.40;34.00;;;;;;5002278;28;20196;-74
2023/01/09 09:59:20;;;;;;;2.17;1.10;;;10.80;33.10;;;;;;4993996;28;20287;-74
2023/01/09 10:01:50;;;;;;;2.20;1.13;;;11.20;32.90;;;;;;4984347;28;20202;-74
2023/01/09 10:04:18;;;;;;;2.40;1.25;;;11.70;31.90;;;;;;4987562;28;20507;-71
2023/01/09 10:06:49;;;;;;;2.40;1.20;;;11.50;32.80;;;;;;4994184;28;20189;-71
2023/01/09 10:09:39;;;;;;;2.40;1.10;;;11.30;32.30;;;;;;4998655;28;20527;-72
2023/01/09 10:12:19;;;;;;;2.50;1.20;;;11.00;32.90;;;;;;4990880;28;20217;-71
2023/01/09 10:14:44;;;;;;;2.35;1.10;;;11.00;33.30;;;;;;4994512;28;20687;-71
2023/01/09 10:17:35;;;;;;;3.00;1.50;;;11.30;32.40;;;;;;4991579;28;20186;-73
2023/01/09 10:20:26;;;;;;;2.50;1.10;;;11.00;32.30;;;;;;5007286;28;20703;-72
2023/01/09 10:23:06;;;;;;;2.50;1.10;;;10.90;33.20;;;;;;4995823;28;20432;-70
2023/01/09 10:25:48;;;;;;;2.80;1.10;;;11.30;32.60;;;;;;5003023;28;20429;-72
2023/01/09 10:28:17;;;;;;;2.70;1.20;;;11.90;30.30;;;;;;4986186;28;20435;-79
2023/01/09 10:30:57;;;;;;;2.73;1.20;;;11.30;31.80;;;;;;4996446;28;21368;-71
2023/01/09 10:33:35;;;;;;;2.70;1.17;;;11.40;32.60;;;;;;5001828;28;20579;-72
2023/01/09 10:36:09;;;;;;;2.67;1.10;;;11.00;33.30;;;;;;4990807;28;20440;-71
2023/01/09 10:38:40;;;;;;;2.70;1.10;;;10.90;32.80;;;;;;4992516;28;20950;-72
2023/01/09 10:41:24;;;;;;;2.67;1.13;;;11.40;32.40;;;;;;4990913;28;20951;-71
2023/01/09 10:43:56;;;;;;;2.80;1.20;;;11.00;32.60;;;;;;5001001;28;20182;-72
2023/01/09 10:46:40;;;;;;;2.70;1.10;;;11.10;33.40;;;;;;5001736;28;20488;-72
2023/01/09 10:49:12;;;;;;;2.60;1.10;;;11.30;32.10;;;;;;4999549;28;20429;-71
2023/01/09 10:51:49;;;;;;;2.80;1.10;;;11.00;33.30;;;;;;4995070;28;20476;-71
2023/01/09 10:54:22;;;;;;;2.70;1.17;;;10.90;32.10;;;;;;4995963;28;20842;-72
2023/01/09 10:56:55;;;;;;;2.70;1.20;;;10.90;33.10;;;;;;4997203;28;20578;-72
2023/01/09 10:59:24;;;;;;;2.70;1.10;;;11.20;33.40;;;;;;4998224;28;20895;-71
2023/01/09 11:01:50;;;;;;;2.80;1.23;;;11.90;31.00;;;;;;4987911;28;20457;-72
2023/01/09 11:04:21;;;;;;;2.70;1.10;;;11.60;31.40;;;;;;4994552;28;20732;-72
2023/01/09 11:06:51;;;;;;;2.80;1.20;;;11.90;30.80;;;;;;4993429;28;20246;-72
2023/01/09 11:09:17;;;;;;;2.70;1.20;;;11.40;31.60;;;;;;4993743;28;20428;-72
2023/01/09 11:11:44;;;;;;;2.60;1.10;;;11.60;32.30;;;;;;4993087;28;20433;-72
2023/01/09 11:14:26;;;;;;;2.60;1.00;;;11.60;30.50;;;;;;4987025;28;20448;-72
2023/01/09 11:16:57;;;;;;;2.60;1.10;;;11.40;32.00;;;;;;5007859;28;20428;-71
2023/01/09 11:19:25;;;;;;;2.80;1.30;;;10.90;33.20;;;;;;4999196;28;20468;-72
2023/01/09 11:22:13;;;;;;;2.70;1.10;;;10.70;33.00;;;;;;5005562;28;20820;-72
2023/01/09 11:24:39;;;;;;;2.77;1.20;;;10.50;33.40;;;;;;5000765;28;20421;-71
2023/01/09 11:27:22;;;;;;;2.70;1.20;;;10.70;33.30;;;;;;5000462;28;20796;-71
2023/01/09 11:30:08;;;;;;;2.67;1.30;;;11.00;33.00;;;;;;4979748;28;20232;-71
2023/01/09 11:32:34;;;;;;;5.30;1.67;;;10.40;33.60;;;;;;4996124;28;20474;-72
2023/01/09 11:35:03;;;;;;;2.70;1.20;;;10.60;36.30;;;;;;5002307;28;20440;-71
2023/01/09 11:37:30;;;;;;;2.80;1.13;;;10.50;33.80;;;;;;4992757;28;20436;-73
2023/01/09 11:39:58;;;;;;;2.80;1.57;;;11.10;32.70;;;;;;5013917;28;20471;-72
2023/01/09 11:45:17;;;;;;;2.70;1.10;;;11.60;31.40;;;;;;4993234;28;20492;-72
2023/01/09 11:47:43;;;;;;;2.83;1.10;;;11.40;33.60;;;;;;4996715;28;20432;-72
2023/01/09 11:50:21;;;;;;;2.70;1.10;;;12.30;30.40;;;;;;4987571;28;20945;-72
2023/01/09 11:53:09;;;;;;;3.60;1.50;;;12.60;29.90;;;;;;4990877;28;20437;-72
2023/01/09 11:55:34;;;;;;;2.80;1.20;;;13.40;28.90;;;;;;4999105;28;20456;-72
2023/01/09 11:58:00;;;;;;;2.80;1.10;;;12.50;29.40;;;;;;4998210;28;20422;-72
2023/01/09 12:00:28;;;;;;;2.80;1.17;;;12.90;30.20;;;;;;4998498;28;20218;-72
2023/01/09 12:03:17;;;;;;;2.90;1.27;;;12.90;29.10;;;;;;5003147;28;20194;-72
2023/01/09 12:05:45;;;;;;;2.80;1.20;;;12.60;29.40;;;;;;4993399;28;20444;-72
2023/01/09 12:08:32;;;;;;;2.80;1.30;;;13.70;28.10;;;;;;4986879;28;20451;-72
2023/01/09 12:11:03;;;;;;;2.90;1.20;;;14.80;25.90;;;;;;4999983;28;20443;-71
2023/01/09 12:14:08;;;;;;;2.80;1.10;;;13.20;28.10;;;;;;5010250;28;20427;-72
2023/01/09 12:16:58;;;;;;;2.80;1.10;;;12.60;30.00;;;;;;4989336;28;20485;-71
2023/01/09 12:19:36;;;;;;;2.80;1.20;;;12.70;29.40;;;;;;5003944;28;20514;-71
2023/01/09 12:22:23;;;;;;;2.90;1.30;;;14.10;28.20;;;;;;5021181;28;20967;-72
2023/01/09 12:25:30;;;;;;;2.80;1.20;;;13.80;27.30;;;;;;5000445;28;20542;-72
2023/01/09 12:28:03;;;;;;;2.80;1.20;;;12.40;29.30;;;;;;4989204;28;20435;-71
2023/01/09 12:30:44;;;;;;;2.90;1.20;;;12.20;30.20;;;;;;5004229;28;20448;-73
2023/01/09 12:33:24;;;;;;;2.90;1.20;;;11.80;30.70;;;;;;5005122;28;20492;-71
2023/01/09 12:35:56;;;;;;;2.90;1.20;;;12.00;30.60;;;;;;4995716;28;20449;-71
2023/01/09 12:38:38;;;;;;;2.87;1.10;;;12.20;31.20;;;;;;4989933;28;20523;-71
2023/01/09 12:41:07;;;;;;;3.10;1.30;;;11.50;31.40;;;;;;4996270;28;20581;-72
2023/01/09 12:43:45;;;;;;;2.93;1.20;;;11.60;31.50;;;;;;4998234;28;20483;-72
2023/01/09 12:46:25;;;;;;;3.40;1.53;;;11.50;32.60;;;;;;5002423;28;20416;-71
2023/01/09 12:49:12;;;;;;;2.83;1.10;;;11.80;32.50;;;;;;4991163;28;20448;-71
2023/01/09 12:52:02;;;;;;;2.87;1.20;;;11.70;33.10;;;;;;4991456;28;20447;-72
2023/01/09 12:54:48;;;;;;;2.80;1.23;;;11.60;32.40;;;;;;4990903;28;20703;-72
2023/01/09 12:57:36;;;;;;;2.90;1.30;;;10.70;34.70;;;;;;4991834;28;20436;-72
2023/01/09 13:00:25;;;;;;;2.83;1.10;;;11.30;34.40;;;;;;4984331;28;20479;-72
2023/01/09 13:02:51;;;;;;;2.87;1.20;;;10.90;35.50;;;;;;4987166;28;20512;-72
2023/01/09 13:05:31;;;;;;;2.90;1.20;;;10.60;35.90;;;;;;5002426;28;21053;-72
2023/01/09 13:08:16;;;;;;;3.00;1.30;;;10.80;36.50;;;;;;4995810;28;20165;-72
2023/01/09 13:10:46;;;;;;;2.80;1.20;;;11.50;34.90;;;;;;4994922;28;20858;-72
2023/01/09 13:13:29;;;;;;;3.00;1.30;;;11.90;33.90;;;;;;4994464;28;20807;-72
2023/01/09 13:15:59;;;;;;;2.90;1.20;;;11.70;33.90;;;;;;4976039;28;20418;-72
2023/01/09 13:18:39;;;;;;;2.80;1.20;;;11.60;33.80;;;;;;4975885;28;20417;-72
2023/01/09 13:21:06;;;;;;;2.80;1.10;;;11.30;35.10;;;;;;4981308;28;20804;-73